createdAt,value
2023-03-13T00:01:39.086Z,8.10
2023-03-13T00:04:06.400Z,8.20
2023-03-13T00:06:36.675Z,8.10
2023-03-13T00:09:15.675Z,8.10
2023-03-13T00:11:43.692Z,8.10
2023-03-13T00:14:10.588Z,8.10
2023-03-13T00:16:37.921Z,8.10
2023-03-13T00:19:06.078Z,8.10
2023-03-13T00:21:33.363Z,8.10
2023-03-13T00:24:00.853Z,8.10
2023-03-13T00:26:29.100Z,8.10
2023-03-13T00:28:56.168Z,8.10
2023-03-13T00:31:25.509Z,8.10
2023-03-13T00:33:54.943Z,8.20
2023-03-13T00:36:24.257Z,8.10
2023-03-13T00:38:52.536Z,8.10
2023-03-13T00:41:30.708Z,8.10
2023-03-13T00:43:58.177Z,8.10
2023-03-13T00:46:27.394Z,8.10
2023-03-13T00:48:54.202Z,8.00
2023-03-13T00:51:24.050Z,8.00
2023-03-13T00:53:50.853Z,8.00
2023-03-13T00:56:19.983Z,8.00
2023-03-13T00:58:48.836Z,7.90
2023-03-13T01:01:25.688Z,7.90
2023-03-13T01:03:58.298Z,7.80
2023-03-13T01:06:31.394Z,7.80
2023-03-13T01:08:59.027Z,7.80
2023-03-13T01:11:28.611Z,7.80
2023-03-13T01:13:57.454Z,7.80
2023-03-13T01:16:25.944Z,7.70
2023-03-13T01:18:55.203Z,7.70
2023-03-13T01:21:23.842Z,7.70
2023-03-13T01:23:52.493Z,7.60
2023-03-13T01:26:19.864Z,7.50
2023-03-13T01:28:46.905Z,7.60
2023-03-13T01:31:22.659Z,7.40
2023-03-13T01:33:55.344Z,7.30
2023-03-13T01:36:22.753Z,7.30
2023-03-13T01:38:51.585Z,7.30
2023-03-13T01:41:19.618Z,7.40
2023-03-13T01:43:46.963Z,7.40
2023-03-13T01:46:16.450Z,7.50
2023-03-13T01:48:54.048Z,7.50
2023-03-13T01:51:37.378Z,7.40
2023-03-13T01:54:10.532Z,7.40
2023-03-13T01:56:47.586Z,7.40
2023-03-13T01:59:17.601Z,7.30
2023-03-13T02:01:47.306Z,7.30
2023-03-13T02:04:16.768Z,7.30
2023-03-13T02:06:47.863Z,7.40
2023-03-13T02:09:19.729Z,7.30
2023-03-13T02:12:01.028Z,7.40
2023-03-13T02:14:30.867Z,7.40
2023-03-13T02:16:57.685Z,7.40
2023-03-13T02:19:49.666Z,7.40
2023-03-13T02:22:31.612Z,7.50
2023-03-13T02:25:24.058Z,7.50
2023-03-13T02:27:55.150Z,7.50
2023-03-13T02:30:22.328Z,7.50
2023-03-13T02:32:49.452Z,7.50
2023-03-13T02:35:20.226Z,7.50
2023-03-13T02:37:51.844Z,7.70
2023-03-13T02:40:24.559Z,7.70
2023-03-13T02:42:53.506Z,7.80
2023-03-13T02:45:20.298Z,7.90
2023-03-13T02:47:47.223Z,7.90
2023-03-13T02:50:14.564Z,8.00
2023-03-13T02:52:48.824Z,8.00
2023-03-13T02:55:22.576Z,8.10
2023-03-13T02:57:49.397Z,8.20
2023-03-13T03:00:17.377Z,8.30
2023-03-13T03:02:45.073Z,8.30
2023-03-13T03:05:14.379Z,8.40
2023-03-13T03:07:41.126Z,8.40
2023-03-13T03:10:08.599Z,8.40
2023-03-13T03:12:35.361Z,8.40
2023-03-13T03:15:04.683Z,8.40
2023-03-13T03:17:31.444Z,8.40
2023-03-13T03:19:58.123Z,8.40
2023-03-13T03:22:24.884Z,8.40
2023-03-13T03:24:51.562Z,8.30
2023-03-13T03:27:18.297Z,8.30
2023-03-13T03:29:45.067Z,8.40
2023-03-13T03:32:11.767Z,8.30
2023-03-13T03:34:38.480Z,8.40
2023-03-13T03:37:05.220Z,8.50
2023-03-13T03:39:32.054Z,8.50
2023-03-13T03:41:58.770Z,8.50
2023-03-13T03:44:25.560Z,8.50
2023-03-13T03:46:52.238Z,8.60
2023-03-13T03:49:19.011Z,8.60
2023-03-13T03:51:46.169Z,8.60
2023-03-13T03:54:12.874Z,8.60
2023-03-13T03:56:39.554Z,8.60
2023-03-13T03:59:06.273Z,8.60
2023-03-13T04:01:32.961Z,8.60
2023-03-13T04:03:59.696Z,8.70
2023-03-13T04:06:26.395Z,8.80
2023-03-13T04:08:53.103Z,8.70
2023-03-13T04:11:20.222Z,8.70
2023-03-13T04:13:47.043Z,8.60
2023-03-13T04:16:13.818Z,8.70
2023-03-13T04:18:40.524Z,8.70
2023-03-13T04:21:07.295Z,8.80
2023-03-13T04:23:33.989Z,8.80
2023-03-13T04:26:00.686Z,8.90
2023-03-13T04:28:27.371Z,8.90
2023-03-13T04:30:57.373Z,8.90
2023-03-13T04:33:25.434Z,8.90
2023-03-13T04:35:52.173Z,8.90
2023-03-13T04:38:18.976Z,8.80
2023-03-13T04:40:46.916Z,8.90
2023-03-13T04:43:13.647Z,8.90
2023-03-13T04:45:40.344Z,8.90
2023-03-13T04:48:07.092Z,9.00
2023-03-13T04:50:33.803Z,8.90
2023-03-13T04:53:00.515Z,9.00
2023-03-13T04:55:27.220Z,9.00
2023-03-13T04:57:53.912Z,9.00
2023-03-13T05:00:20.881Z,9.10
2023-03-13T05:02:47.648Z,9.10
2023-03-13T05:05:14.445Z,9.20
2023-03-13T05:07:41.255Z,9.20
2023-03-13T05:10:08.399Z,9.30
2023-03-13T05:12:35.203Z,9.30
2023-03-13T05:15:01.917Z,9.30
2023-03-13T05:17:28.649Z,9.30
2023-03-13T05:19:55.393Z,9.40
2023-03-13T05:22:22.091Z,9.40
2023-03-13T05:24:48.770Z,9.40
2023-03-13T05:27:15.517Z,9.50
2023-03-13T05:29:42.283Z,9.50
2023-03-13T05:32:09.037Z,9.50
2023-03-13T05:34:35.764Z,9.50
2023-03-13T05:37:02.542Z,9.60
2023-03-13T05:39:29.385Z,9.70
2023-03-13T05:41:56.111Z,9.60
2023-03-13T05:44:22.833Z,9.60
2023-03-13T05:46:49.614Z,9.70
2023-03-13T05:49:16.433Z,9.70
2023-03-13T05:51:43.133Z,9.70
2023-03-13T05:54:09.827Z,9.80
2023-03-13T05:56:36.489Z,9.80
2023-03-13T05:59:03.317Z,9.90
2023-03-13T06:01:29.997Z,9.90
2023-03-13T06:03:56.833Z,10.00
2023-03-13T06:06:23.626Z,10.00
2023-03-13T06:08:53.152Z,10.10
2023-03-13T06:11:19.922Z,10.10
2023-03-13T06:13:46.668Z,10.20
2023-03-13T06:16:13.422Z,10.20
2023-03-13T06:18:40.279Z,10.30
2023-03-13T06:21:07.009Z,10.30
2023-03-13T06:23:33.792Z,10.30
2023-03-13T06:26:01.466Z,10.30
2023-03-13T06:28:28.986Z,10.30
2023-03-13T06:31:00.514Z,10.40
2023-03-13T06:33:27.411Z,10.40
2023-03-13T06:35:56.889Z,10.60
2023-03-13T06:38:28.038Z,10.60
2023-03-13T06:40:54.843Z,10.70
2023-03-13T06:43:21.863Z,10.70
2023-03-13T06:45:48.673Z,10.80
2023-03-13T06:48:15.553Z,10.90
2023-03-13T06:50:42.953Z,10.90
2023-03-13T06:53:20.565Z,11.00
2023-03-13T06:55:49.078Z,11.00
2023-03-13T06:58:31.080Z,11.10
2023-03-13T07:01:09.310Z,11.10
2023-03-13T07:03:37.268Z,11.20
2023-03-13T07:06:05.583Z,11.20
2023-03-13T07:08:32.964Z,11.30
2023-03-13T07:11:02.975Z,11.30
2023-03-13T07:13:30.051Z,11.40
2023-03-13T07:16:00.249Z,11.40
2023-03-13T07:18:27.095Z,11.60
2023-03-13T07:20:59.290Z,11.70
2023-03-13T07:23:27.866Z,11.80
2023-03-13T07:25:58.448Z,11.90
2023-03-13T07:28:26.408Z,12.00
2023-03-13T07:30:53.969Z,12.10
2023-03-13T07:33:20.831Z,12.10
2023-03-13T07:35:51.813Z,12.20
2023-03-13T07:38:19.509Z,12.20
2023-03-13T07:40:50.859Z,12.20
2023-03-13T07:43:18.102Z,12.30
2023-03-13T07:45:52.880Z,12.30
2023-03-13T07:48:20.629Z,12.20
2023-03-13T07:50:47.679Z,12.10
2023-03-13T07:53:20.920Z,11.90
2023-03-13T07:56:10.349Z,11.80
2023-03-13T07:58:38.821Z,11.80
2023-03-13T08:01:11.231Z,11.80
2023-03-13T08:03:39.170Z,11.90
2023-03-13T08:06:14.352Z,12.00
2023-03-13T08:08:41.489Z,12.10
2023-03-13T08:11:11.021Z,12.20
2023-03-13T08:13:38.405Z,12.30
2023-03-13T08:16:12.787Z,12.30
2023-03-13T08:18:41.810Z,12.30
2023-03-13T08:21:11.477Z,12.40
2023-03-13T08:23:39.029Z,12.60
2023-03-13T08:26:08.377Z,12.90
2023-03-13T08:28:36.026Z,13.20
2023-03-13T08:31:13.149Z,13.30
2023-03-13T08:33:41.976Z,13.50
2023-03-13T08:36:14.884Z,13.70
2023-03-13T08:38:45.783Z,13.80
2023-03-13T08:41:14.338Z,13.90
2023-03-13T08:43:41.066Z,13.90
2023-03-13T08:46:07.899Z,14.00
2023-03-13T08:48:34.730Z,14.10
2023-03-13T08:51:07.111Z,14.40
2023-03-13T08:53:35.351Z,14.50
2023-03-13T08:56:02.688Z,14.50
2023-03-13T08:58:29.449Z,14.40
2023-03-13T09:01:02.217Z,14.60
2023-03-13T09:03:29.119Z,14.70
2023-03-13T09:05:58.135Z,14.80
2023-03-13T09:08:25.608Z,14.90
2023-03-13T09:11:13.612Z,14.90
2023-03-13T09:13:46.061Z,15.00
2023-03-13T09:16:15.790Z,15.20
2023-03-13T09:18:43.541Z,15.40
2023-03-13T09:21:21.735Z,15.60
2023-03-13T09:23:50.154Z,15.90
2023-03-13T09:26:20.896Z,16.00
2023-03-13T09:28:49.675Z,16.30
2023-03-13T09:31:18.711Z,16.50
2023-03-13T09:33:47.332Z,16.20
2023-03-13T09:36:14.510Z,16.20
2023-03-13T09:38:41.753Z,16.30
2023-03-13T09:41:17.424Z,16.30
2023-03-13T09:44:13.122Z,16.40
2023-03-13T09:47:02.847Z,16.30
2023-03-13T09:49:46.904Z,16.20
2023-03-13T09:52:36.396Z,16.10
2023-03-13T09:55:17.273Z,16.10
2023-03-13T09:57:57.450Z,16.20
2023-03-13T10:00:33.009Z,16.30
2023-03-13T10:03:07.508Z,16.40
2023-03-13T10:05:34.359Z,16.50
2023-03-13T10:08:15.399Z,16.50
2023-03-13T10:10:57.831Z,16.60
2023-03-13T10:13:32.203Z,16.70
2023-03-13T10:16:04.782Z,16.70
2023-03-13T10:18:33.237Z,16.80
2023-03-13T10:21:10.464Z,16.70
2023-03-13T10:23:40.226Z,16.80
2023-03-13T10:26:33.011Z,16.80
2023-03-13T10:29:16.887Z,16.90
2023-03-13T10:32:01.759Z,17.00
2023-03-13T10:34:44.701Z,17.10
2023-03-13T10:37:15.783Z,17.30
2023-03-13T10:39:42.560Z,17.50
2023-03-13T10:42:17.291Z,17.70
2023-03-13T10:44:45.260Z,17.70
2023-03-13T10:47:14.368Z,17.70
2023-03-13T10:49:55.297Z,17.70
2023-03-13T10:52:36.154Z,17.80
2023-03-13T10:55:06.201Z,17.70
2023-03-13T10:57:37.410Z,17.50
2023-03-13T11:00:38.892Z,17.50
2023-03-13T11:03:34.453Z,17.50
2023-03-13T11:06:03.919Z,17.50
2023-03-13T11:08:37.540Z,17.50
2023-03-13T11:11:10.948Z,17.50
2023-03-13T11:13:43.002Z,17.40
2023-03-13T11:16:20.486Z,17.40
2023-03-13T11:19:08.440Z,17.50
2023-03-13T11:21:59.909Z,17.60
2023-03-13T11:24:40.274Z,17.70
2023-03-13T11:27:31.850Z,17.70
2023-03-13T11:30:22.798Z,17.60
2023-03-13T11:33:00.491Z,17.70
2023-03-13T11:35:44.835Z,17.70
2023-03-13T11:38:23.746Z,17.70
2023-03-13T11:41:23.362Z,17.60
2023-03-13T11:44:09.063Z,17.60
2023-03-13T11:47:08.092Z,17.60
2023-03-13T11:49:59.239Z,17.60
2023-03-13T11:52:58.189Z,17.50
2023-03-13T11:55:59.735Z,17.40
2023-03-13T11:58:32.541Z,17.30
2023-03-13T12:01:12.145Z,17.30
2023-03-13T12:04:00.950Z,17.30
2023-03-13T12:06:37.917Z,17.30
2023-03-13T12:09:28.839Z,17.40
2023-03-13T12:12:04.759Z,17.40
2023-03-13T12:14:51.195Z,17.50
2023-03-13T12:18:07.498Z,17.60
2023-03-13T12:21:12.751Z,17.60
2023-03-13T12:23:39.479Z,17.80
2023-03-13T12:26:16.940Z,17.90
2023-03-13T12:28:57.009Z,17.80
2023-03-13T12:31:38.113Z,17.90
2023-03-13T12:34:14.073Z,17.80
2023-03-13T12:36:52.832Z,17.80
2023-03-13T12:39:41.601Z,17.80
2023-03-13T12:42:19.044Z,17.90
2023-03-13T12:44:46.388Z,17.90
2023-03-13T12:47:33.239Z,17.90
2023-03-13T12:50:23.388Z,17.90
2023-03-13T12:52:50.157Z,17.90
2023-03-13T12:55:52.718Z,18.00
2023-03-13T12:58:39.986Z,18.00
2023-03-13T13:01:08.169Z,18.10
2023-03-13T13:03:58.258Z,18.20
2023-03-13T13:06:25.597Z,18.40
2023-03-13T13:08:55.155Z,18.40
2023-03-13T13:11:33.895Z,18.40
2023-03-13T13:14:19.819Z,18.50
2023-03-13T13:17:29.108Z,18.60
2023-03-13T13:19:56.530Z,18.60
2023-03-13T13:22:38.309Z,18.70
2023-03-13T13:25:08.110Z,18.80
2023-03-13T13:27:37.618Z,18.80
2023-03-13T13:30:19.719Z,18.80
2023-03-13T13:32:54.621Z,18.90
2023-03-13T13:35:31.246Z,18.90
2023-03-13T13:38:19.911Z,18.90
2023-03-13T13:41:00.265Z,19.00
2023-03-13T13:43:38.150Z,18.90
2023-03-13T13:46:23.017Z,18.90
2023-03-13T13:49:13.922Z,18.90
2023-03-13T13:52:03.956Z,18.90
2023-03-13T13:54:42.878Z,18.90
2023-03-13T13:57:16.302Z,18.90
2023-03-13T13:59:44.260Z,18.90
2023-03-13T14:02:45.093Z,18.90
2023-03-13T14:05:22.661Z,19.00
2023-03-13T14:07:52.117Z,18.90
2023-03-13T14:10:28.239Z,19.00
2023-03-13T14:12:59.878Z,19.10
2023-03-13T14:15:26.608Z,19.10
2023-03-13T14:17:54.701Z,19.20
2023-03-13T14:20:24.478Z,19.20
2023-03-13T14:22:53.982Z,19.30
2023-03-13T14:25:22.663Z,19.30
2023-03-13T14:27:50.679Z,19.40
2023-03-13T14:30:19.948Z,19.40
2023-03-13T14:32:47.192Z,19.30
2023-03-13T14:35:20.785Z,19.30
2023-03-13T14:37:50.344Z,19.30
2023-03-13T14:40:29.760Z,19.30
2023-03-13T14:42:59.133Z,19.30
2023-03-13T14:45:39.620Z,19.30
2023-03-13T14:48:22.690Z,19.30
2023-03-13T14:50:59.631Z,19.40
2023-03-13T14:53:36.250Z,19.20
2023-03-13T14:56:12.389Z,19.20
2023-03-13T14:58:39.298Z,19.20
2023-03-13T15:01:30.601Z,19.10
2023-03-13T15:03:57.612Z,19.10
2023-03-13T15:06:25.842Z,19.00
2023-03-13T15:09:10.642Z,19.00
2023-03-13T15:11:43.301Z,19.00
2023-03-13T15:14:33.151Z,19.10
2023-03-13T15:16:59.927Z,19.10
2023-03-13T15:19:26.635Z,19.20
2023-03-13T15:21:54.748Z,19.20
2023-03-13T15:24:21.477Z,19.20
2023-03-13T15:26:49.299Z,19.20
2023-03-13T15:29:18.289Z,19.20
2023-03-13T15:31:45.242Z,19.20
2023-03-13T15:34:15.000Z,19.10
2023-03-13T15:36:42.627Z,19.00
2023-03-13T15:39:16.971Z,19.00
2023-03-13T15:41:43.745Z,19.00
2023-03-13T15:44:10.688Z,19.00
2023-03-13T15:46:37.653Z,18.90
2023-03-13T15:49:05.107Z,19.00
2023-03-13T15:51:33.037Z,19.00
2023-03-13T15:53:59.909Z,19.00
2023-03-13T15:56:31.280Z,18.90
2023-03-13T15:58:58.074Z,19.00
2023-03-13T16:01:25.029Z,19.00
2023-03-13T16:03:51.938Z,19.00
2023-03-13T16:06:21.473Z,19.00
2023-03-13T16:08:48.283Z,19.00
2023-03-13T16:11:17.117Z,18.90
2023-03-13T16:13:43.964Z,18.90
2023-03-13T16:16:29.459Z,18.90
2023-03-13T16:18:57.842Z,18.80
2023-03-13T16:21:29.155Z,18.80
2023-03-13T16:23:56.490Z,18.70
2023-03-13T16:26:26.165Z,18.70
2023-03-13T16:28:54.091Z,18.60
2023-03-13T16:31:22.103Z,18.60
2023-03-13T16:33:53.035Z,18.50
2023-03-13T16:36:30.196Z,18.40
2023-03-13T16:38:58.218Z,18.40
2023-03-13T16:41:27.681Z,18.40
2023-03-13T16:43:55.764Z,18.40
2023-03-13T16:46:34.593Z,18.30
2023-03-13T16:49:01.594Z,18.30
2023-03-13T16:51:28.865Z,18.20
2023-03-13T16:53:57.058Z,18.10
2023-03-13T16:56:26.828Z,18.10
2023-03-13T16:58:54.934Z,18.10
2023-03-13T17:01:24.933Z,18.00
2023-03-13T17:03:52.021Z,17.90
2023-03-13T17:06:25.437Z,17.90
2023-03-13T17:08:52.509Z,17.80
2023-03-13T17:11:21.438Z,17.70
2023-03-13T17:13:50.150Z,17.60
2023-03-13T17:16:22.839Z,17.50
2023-03-13T17:18:52.282Z,17.40
2023-03-13T17:21:28.535Z,17.40
2023-03-13T17:23:55.576Z,17.40
2023-03-13T17:26:24.089Z,17.30
2023-03-13T17:28:53.435Z,17.20
2023-03-13T17:31:21.497Z,17.20
2023-03-13T17:33:48.756Z,17.10
2023-03-13T17:36:27.420Z,17.10
2023-03-13T17:39:03.019Z,17.00
2023-03-13T17:41:32.214Z,16.90
2023-03-13T17:43:59.658Z,16.90
2023-03-13T17:46:46.560Z,16.80
2023-03-13T17:49:18.127Z,16.70
2023-03-13T17:51:46.261Z,16.60
2023-03-13T17:54:15.632Z,16.50
2023-03-13T17:56:43.975Z,16.50
2023-03-13T17:59:16.708Z,16.40
2023-03-13T18:01:44.389Z,16.30
2023-03-13T18:04:12.143Z,16.20
2023-03-13T18:06:43.266Z,16.10
2023-03-13T18:09:20.788Z,16.00
2023-03-13T18:11:48.944Z,15.90
2023-03-13T18:14:15.853Z,15.80
2023-03-13T18:16:47.920Z,15.70
2023-03-13T18:19:21.231Z,15.60
2023-03-13T18:21:50.878Z,15.60
2023-03-13T18:24:17.880Z,15.50
2023-03-13T18:26:45.613Z,15.50
2023-03-13T18:29:21.150Z,15.50
2023-03-13T18:31:48.196Z,15.40
2023-03-13T18:34:15.287Z,15.40
2023-03-13T18:36:42.325Z,15.40
2023-03-13T18:39:13.904Z,15.30
2023-03-13T18:41:40.689Z,15.30
2023-03-13T18:44:07.411Z,15.20
2023-03-13T18:46:34.709Z,15.20
2023-03-13T18:49:01.517Z,15.20
2023-03-13T18:51:28.581Z,15.20
2023-03-13T18:53:56.453Z,15.20
2023-03-13T18:56:34.391Z,15.10
2023-03-13T18:59:01.268Z,15.00
2023-03-13T19:01:30.808Z,15.00
2023-03-13T19:04:00.070Z,15.00
2023-03-13T19:06:34.992Z,14.90
2023-03-13T19:09:41.613Z,14.90
2023-03-13T19:12:05.061Z,14.90
2023-03-13T19:14:31.883Z,14.90
2023-03-13T19:16:58.656Z,14.80
2023-03-13T19:19:26.254Z,14.80
2023-03-13T19:21:56.783Z,14.70
2023-03-13T19:24:26.661Z,14.70
2023-03-13T19:26:58.829Z,14.70
2023-03-13T19:29:27.779Z,14.70
2023-03-13T19:31:54.973Z,14.60
2023-03-13T19:34:21.935Z,14.60
2023-03-13T19:36:49.730Z,14.50
2023-03-13T19:39:23.684Z,14.50
2023-03-13T19:41:51.251Z,14.50
2023-03-13T19:44:19.240Z,14.50
2023-03-13T19:46:47.111Z,14.40
2023-03-13T19:49:19.589Z,14.40
2023-03-13T19:51:47.075Z,14.40
2023-03-13T19:54:14.688Z,14.40
2023-03-13T19:56:44.177Z,14.40
2023-03-13T19:59:18.995Z,14.30
2023-03-13T20:01:45.964Z,14.20
2023-03-13T20:04:13.457Z,14.20
2023-03-13T20:06:41.430Z,14.20
2023-03-13T20:09:10.496Z,14.20
2023-03-13T20:11:38.215Z,14.10
2023-03-13T20:14:05.582Z,14.00
2023-03-13T20:16:34.475Z,14.00
2023-03-13T20:19:02.573Z,14.00
2023-03-13T20:21:31.608Z,13.90
2023-03-13T20:23:58.923Z,13.90
2023-03-13T20:26:28.338Z,13.90
2023-03-13T20:28:56.449Z,13.80
2023-03-13T20:31:29.483Z,13.80
2023-03-13T20:33:57.252Z,13.80
2023-03-13T20:36:24.830Z,13.60
2023-03-13T20:38:51.927Z,13.60
2023-03-13T20:41:24.877Z,13.60
2023-03-13T20:43:52.756Z,13.60
2023-03-13T20:46:20.372Z,13.50
2023-03-13T20:48:47.296Z,13.50
2023-03-13T20:51:14.283Z,13.40
2023-03-13T20:53:42.421Z,13.40
2023-03-13T20:56:10.548Z,13.30
2023-03-13T20:58:37.772Z,13.10
2023-03-13T21:01:06.288Z,13.10
2023-03-13T21:03:36.363Z,13.00
2023-03-13T21:06:17.853Z,12.90
2023-03-13T21:08:45.936Z,12.80
2023-03-13T21:11:23.436Z,12.90
2023-03-13T21:13:51.260Z,12.90
2023-03-13T21:16:19.893Z,13.00
2023-03-13T21:18:47.321Z,13.00
2023-03-13T21:21:18.586Z,13.10
2023-03-13T21:23:46.212Z,13.10
2023-03-13T21:26:14.205Z,13.20
2023-03-13T21:28:41.187Z,13.20
2023-03-13T21:31:14.181Z,13.30
2023-03-13T21:33:41.821Z,13.40
2023-03-13T21:36:10.077Z,13.50
2023-03-13T21:38:36.893Z,13.60
2023-03-13T21:41:12.077Z,13.70
2023-03-13T21:43:43.037Z,13.80
2023-03-13T21:46:11.965Z,13.90
2023-03-13T21:48:39.573Z,14.00
2023-03-13T21:51:07.069Z,14.00
2023-03-13T21:53:34.571Z,14.00
2023-03-13T21:56:01.608Z,13.90
2023-03-13T21:58:28.406Z,13.80
2023-03-13T22:00:56.557Z,13.60
2023-03-13T22:03:24.546Z,13.60
2023-03-13T22:05:51.356Z,13.50
2023-03-13T22:08:18.181Z,13.50
2023-03-13T22:10:49.535Z,13.40
2023-03-13T22:13:16.776Z,13.30
2023-03-13T22:15:46.264Z,13.20
2023-03-13T22:18:16.776Z,13.00
2023-03-13T22:20:43.609Z,12.80
2023-03-13T22:23:11.792Z,12.60
2023-03-13T22:25:40.488Z,12.50
2023-03-13T22:28:07.433Z,12.40
2023-03-13T22:30:34.642Z,12.40
2023-03-13T22:33:01.606Z,12.30
2023-03-13T22:35:28.384Z,12.30
2023-03-13T22:37:55.155Z,12.30
2023-03-13T22:40:21.977Z,12.30
2023-03-13T22:42:48.731Z,12.30
2023-03-13T22:45:16.025Z,12.30
2023-03-13T22:47:42.792Z,12.20
2023-03-13T22:50:11.116Z,12.20
2023-03-13T22:52:38.479Z,12.10
2023-03-13T22:55:05.582Z,12.10
2023-03-13T22:57:32.704Z,12.00
2023-03-13T23:00:00.239Z,12.00
2023-03-13T23:02:28.193Z,12.00
2023-03-13T23:04:59.426Z,12.00
2023-03-13T23:07:30.242Z,12.00
2023-03-13T23:09:58.318Z,12.00
2023-03-13T23:12:26.143Z,11.90
2023-03-13T23:14:53.186Z,11.90
2023-03-13T23:17:19.990Z,11.90
2023-03-13T23:19:46.815Z,11.90
2023-03-13T23:22:17.860Z,11.80
2023-03-13T23:24:44.919Z,11.80
2023-03-13T23:27:11.713Z,11.80
2023-03-13T23:29:39.550Z,11.80
2023-03-13T23:32:07.072Z,11.80
2023-03-13T23:34:36.179Z,11.70
2023-03-13T23:37:03.317Z,11.60
2023-03-13T23:39:30.398Z,11.70
2023-03-13T23:41:57.552Z,11.70
2023-03-13T23:44:24.411Z,11.80
2023-03-13T23:46:51.174Z,11.80
2023-03-13T23:49:18.010Z,11.80
2023-03-13T23:51:44.910Z,11.90
2023-03-13T23:54:11.685Z,12.00
2023-03-13T23:56:38.431Z,12.00
2023-03-13T23:59:05.323Z,11.90
